Time;durP1;ratioP1;P1;durP2;ratioP2;P2;SDS_P1;SDS_P2;PMS_P1;PMS_P2;Temp;Humidity;BMP_temperature;BMP_pressure;BME280_temperature;BME280_humidity;BME280_pressure;Samples;Min_cycle;Max_cycle;Signal;HPM_P1;HPM_P2
2022/03/30 00:01:04;;;;;;;43.17;19.10;;;9.90;93.40;;;;;;5066957;28;20182;-67
2022/03/30 00:03:30;;;;;;;38.00;19.30;;;9.70;93.30;;;;;;5083983;28;20243;-67
2022/03/30 00:05:56;;;;;;;40.40;19.70;;;9.60;93.40;;;;;;5068641;28;20673;-66
2022/03/30 00:08:21;;;;;;;37.67;18.55;;;9.60;93.80;;;;;;5084909;28;20182;-67
2022/03/30 00:10:47;;;;;;;34.97;17.90;;;9.50;93.50;;;;;;5087811;28;21011;-67
2022/03/30 00:13:13;;;;;;;38.35;18.60;;;9.50;93.50;;;;;;5083223;28;20185;-67
2022/03/30 00:15:39;;;;;;;41.17;17.65;;;9.50;93.60;;;;;;5085163;28;20182;-68
2022/03/30 00:18:04;;;;;;;37.90;18.05;;;9.40;93.60;;;;;;5065903;28;20202;-69
2022/03/30 00:20:30;;;;;;;41.38;17.92;;;9.40;93.60;;;;;;5069174;28;20198;-68
2022/03/30 00:22:56;;;;;;;37.28;18.30;;;9.40;93.60;;;;;;5085014;28;20216;-67
2022/03/30 00:25:22;;;;;;;36.95;18.42;;;9.40;93.70;;;;;;5086005;28;20217;-69
2022/03/30 00:27:48;;;;;;;39.92;18.52;;;9.40;93.70;;;;;;5085021;28;20662;-67
2022/03/30 00:30:15;;;;;;;32.42;17.08;;;9.40;93.70;;;;;;5068878;28;20209;-69
2022/03/30 00:32:41;;;;;;;42.70;18.98;;;9.40;93.80;;;;;;5083869;28;20194;-68
2022/03/30 00:35:08;;;;;;;42.28;18.10;;;9.30;93.80;;;;;;5068751;28;20204;-68
2022/03/30 00:37:37;;;;;;;37.13;18.60;;;9.40;93.90;;;;;;5084958;28;20235;-69
2022/03/30 00:40:05;;;;;;;36.42;17.25;;;9.30;93.90;;;;;;5088356;28;20185;-68
2022/03/30 00:42:31;;;;;;;37.22;20.00;;;9.30;94.00;;;;;;5082018;28;20421;-69
2022/03/30 00:44:57;;;;;;;38.50;20.27;;;9.70;94.30;;;;;;5089140;28;20392;-67
2022/03/30 00:47:24;;;;;;;37.60;20.27;;;10.10;93.80;;;;;;5070218;28;20918;-65
2022/03/30 00:49:51;;;;;;;39.22;19.83;;;10.20;93.40;;;;;;5071649;28;20501;-66
2022/03/30 00:52:17;;;;;;;36.63;19.27;;;10.30;93.20;;;;;;5089598;28;20417;-65
2022/03/30 00:54:44;;;;;;;41.73;20.40;;;10.40;93.00;;;;;;5052959;28;20443;-68
2022/03/30 00:57:12;;;;;;;44.00;19.45;;;10.40;92.90;;;;;;5085477;28;20273;-67
2022/03/30 00:59:39;;;;;;;33.50;17.52;;;10.00;93.10;;;;;;5073176;28;20255;-67
2022/03/30 01:02:05;;;;;;;33.90;17.45;;;9.70;93.40;;;;;;5089131;28;20691;-68
2022/03/30 01:04:34;;;;;;;34.42;17.38;;;9.60;93.60;;;;;;5091735;28;20178;-66
2022/03/30 01:07:00;;;;;;;37.03;18.33;;;9.40;93.70;;;;;;5087419;28;20669;-64
2022/03/30 01:09:26;;;;;;;34.97;17.40;;;9.30;93.80;;;;;;5090320;28;20178;-67
2022/03/30 01:11:56;;;;;;;39.72;17.40;;;9.20;93.90;;;;;;5089478;28;20711;-68
2022/03/30 01:14:25;;;;;;;38.35;18.77;;;9.10;94.00;;;;;;5072644;28;20217;-67
2022/03/30 01:16:51;;;;;;;40.95;19.40;;;9.00;94.00;;;;;;5072071;28;20208;-66
2022/03/30 01:19:17;;;;;;;36.90;18.90;;;9.00;94.00;;;;;;5087336;28;20685;-67
2022/03/30 01:21:46;;;;;;;36.60;18.70;;;8.90;94.00;;;;;;5088802;28;20259;-67
2022/03/30 01:24:12;;;;;;;40.63;18.93;;;8.80;94.40;;;;;;5071404;28;20291;-67
2022/03/30 01:26:38;;;;;;;;;;;8.80;94.10;;;;;;5088335;28;20455;-68
2022/03/30 01:32:25;;;;;;;;;;;8.70;94.10;;;;;;5090067;28;20026;-67
2022/03/30 01:34:35;;;;;;;34.75;18.42;;;8.60;94.30;;;;;;5090429;28;20196;-67
2022/03/30 01:37:03;;;;;;;40.63;19.08;;;8.60;94.40;;;;;;5087460;28;20269;-66
2022/03/30 01:39:29;;;;;;;40.58;19.13;;;8.60;94.40;;;;;;5090406;28;20186;-66
2022/03/30 01:41:55;;;;;;;43.50;18.65;;;8.60;94.50;;;;;;5087613;28;20198;-66
2022/03/30 01:44:20;;;;;;;44.42;19.08;;;8.60;94.60;;;;;;5090025;28;20235;-65
2022/03/30 01:46:46;;;;;;;45.08;19.77;;;8.60;94.60;;;;;;5089950;28;20242;-66
2022/03/30 01:49:12;;;;;;;40.75;18.98;;;8.60;94.70;;;;;;5071566;28;20186;-67
2022/03/30 01:51:37;;;;;;;39.70;19.17;;;8.50;94.70;;;;;;5070163;28;20663;-67
2022/03/30 01:54:03;;;;;;;46.17;19.05;;;8.50;94.70;;;;;;5071342;28;20374;-68
2022/03/30 01:56:29;;;;;;;41.42;19.25;;;8.50;94.80;;;;;;5086964;28;20194;-66
2022/03/30 01:58:54;;;;;;;37.05;18.98;;;8.50;94.90;;;;;;5070775;28;20217;-65
2022/03/30 02:01:20;;;;;;;45.47;19.58;;;8.40;94.90;;;;;;5068650;28;20190;-67
2022/03/30 02:03:46;;;;;;;39.58;18.55;;;8.40;94.90;;;;;;5087896;28;20272;-65
2022/03/30 02:06:12;;;;;;;37.08;18.80;;;8.40;95.00;;;;;;5089169;28;20269;-66
2022/03/30 02:08:38;;;;;;;36.92;17.65;;;8.40;95.10;;;;;;5089659;28;20243;-66
2022/03/30 02:11:04;;;;;;;48.70;18.27;;;8.30;95.10;;;;;;5088817;28;20558;-67
2022/03/30 02:13:30;;;;;;;38.92;18.30;;;8.30;95.20;;;;;;5081416;28;20189;-69
2022/03/30 02:15:55;;;;;;;44.83;18.60;;;8.30;95.20;;;;;;5088560;28;20601;-68
2022/03/30 02:18:21;;;;;;;41.13;18.83;;;8.30;95.30;;;;;;5088328;28;20217;-69
2022/03/30 02:20:47;;;;;;;46.03;18.98;;;8.20;95.30;;;;;;5088737;28;20189;-69
2022/03/30 02:23:12;;;;;;;37.35;17.42;;;8.20;95.40;;;;;;5068419;28;20205;-68
2022/03/30 02:25:38;;;;;;;42.85;18.45;;;8.20;95.50;;;;;;5088972;28;20687;-69
2022/03/30 02:28:04;;;;;;;37.10;17.80;;;8.20;95.50;;;;;;5070116;28;20189;-67
2022/03/30 02:30:30;;;;;;;41.92;17.75;;;8.20;95.60;;;;;;5085533;28;20189;-68
2022/03/30 02:32:57;;;;;;;46.17;18.80;;;8.20;95.70;;;;;;5053702;28;20231;-67
2022/03/30 02:35:23;;;;;;;38.17;17.90;;;8.20;95.80;;;;;;5071940;28;20188;-65
2022/03/30 02:37:49;;;;;;;44.38;18.25;;;8.20;95.80;;;;;;5087780;28;20186;-66
2022/03/30 02:40:15;;;;;;;36.05;17.75;;;8.20;95.90;;;;;;5090673;28;20192;-67
2022/03/30 02:42:41;;;;;;;42.22;18.55;;;8.20;96.00;;;;;;5086418;28;20213;-66
2022/03/30 02:45:07;;;;;;;40.60;17.58;;;8.20;96.00;;;;;;5086223;28;20199;-67
2022/03/30 02:50:16;;;;;;;40.20;18.17;;;8.20;96.10;;;;;;5087870;28;20341;-65
2022/03/30 02:52:42;;;;;;;39.13;19.35;;;8.10;96.10;;;;;;5086904;28;20266;-68
2022/03/30 02:55:08;;;;;;;39.15;19.45;;;8.10;96.10;;;;;;5088965;28;20190;-68
2022/03/30 02:57:34;;;;;;;39.40;19.30;;;8.10;96.20;;;;;;5068103;28;20182;-67
2022/03/30 02:59:59;;;;;;;40.70;18.77;;;8.10;96.20;;;;;;5069487;28;20186;-67
2022/03/30 03:02:26;;;;;;;44.38;19.27;;;8.10;96.20;;;;;;5082936;28;20217;-66
2022/03/30 03:04:51;;;;;;;45.17;19.45;;;8.10;96.30;;;;;;5054842;28;20298;-65
2022/03/30 03:07:17;;;;;;;45.08;19.77;;;8.00;96.30;;;;;;5086918;28;20204;-67
2022/03/30 03:09:43;;;;;;;44.55;18.67;;;8.00;96.40;;;;;;5087582;28;20639;-69
2022/03/30 03:12:08;;;;;;;41.03;19.38;;;7.90;96.40;;;;;;5087328;28;20671;-68
2022/03/30 03:14:34;;;;;;;47.47;18.88;;;7.90;96.40;;;;;;5067860;28;20313;-67
2022/03/30 03:17:00;;;;;;;41.45;18.77;;;7.90;96.40;;;;;;5085020;28;20267;-69
2022/03/30 03:19:28;;;;;;;48.87;22.73;;;7.80;96.50;;;;;;5085791;28;20540;-70
2022/03/30 03:21:54;;;;;;;45.30;22.60;;;8.20;96.90;;;;;;5084675;28;20513;-67
2022/03/30 03:24:20;;;;;;;45.77;23.10;;;8.60;96.50;;;;;;5068361;28;20568;-66
2022/03/30 03:26:45;;;;;;;44.15;22.80;;;8.80;96.40;;;;;;5083691;28;20501;-67
2022/03/30 03:29:11;;;;;;;43.00;23.20;;;8.90;96.30;;;;;;5086324;28;20408;-65
2022/03/30 03:31:36;;;;;;;45.47;23.10;;;9.00;96.00;;;;;;5062174;28;20516;-65
2022/03/30 03:34:02;;;;;;;42.67;23.33;;;9.00;95.70;;;;;;5086483;28;20429;-67
2022/03/30 03:36:28;;;;;;;43.70;19.98;;;9.00;95.60;;;;;;5070097;28;20193;-66
2022/03/30 03:38:54;;;;;;;48.95;20.45;;;8.70;95.80;;;;;;5087503;28;20189;-65
2022/03/30 03:41:20;;;;;;;47.30;20.20;;;8.40;96.20;;;;;;5069159;28;21565;-64
2022/03/30 03:43:46;;;;;;;;;;;8.20;96.40;;;;;;5085851;28;20186;-64
2022/03/30 03:46:12;;;;;;;;;;;8.00;96.50;;;;;;5087313;28;20047;-66
2022/03/30 03:48:38;;;;;;;;;;;7.90;96.60;;;;;;5086238;28;25055;-66
2022/03/30 03:51:03;;;;;;;;;;;7.80;97.00;;;;;;5087971;28;20063;-67
2022/03/30 03:53:29;;;;;;;38.13;19.35;;;7.70;96.70;;;;;;5083077;28;20050;-68
2022/03/30 03:55:55;;;;;;;47.08;20.20;;;7.70;96.70;;;;;;5085404;28;20205;-68
2022/03/30 03:58:21;;;;;;;40.95;19.95;;;7.60;96.80;;;;;;5067730;28;20200;-66
2022/03/30 04:00:46;;;;;;;51.67;20.92;;;7.60;96.90;;;;;;5082650;28;20193;-66
2022/03/30 04:03:12;;;;;;;43.00;20.48;;;7.60;97.00;;;;;;5066005;28;20205;-66
2022/03/30 04:05:38;;;;;;;43.58;23.80;;;7.60;97.10;;;;;;5085927;28;20409;-66
2022/03/30 04:08:04;;;;;;;44.30;23.37;;;8.00;97.60;;;;;;5066098;28;20468;-67
2022/03/30 04:10:30;;;;;;;44.83;22.90;;;8.40;97.10;;;;;;5085574;28;21324;-66
2022/03/30 04:12:56;;;;;;;45.58;22.92;;;8.70;96.70;;;;;;5081373;28;20459;-67
2022/03/30 04:15:22;;;;;;;43.80;22.65;;;8.80;96.50;;;;;;5083861;28;20401;-66
2022/03/30 04:17:48;;;;;;;42.70;22.87;;;8.90;96.20;;;;;;5063129;28;20854;-65
2022/03/30 04:20:15;;;;;;;39.35;20.33;;;8.90;96.00;;;;;;5080912;28;20903;-66
2022/03/30 04:22:42;;;;;;;43.85;20.52;;;8.60;96.30;;;;;;5059426;28;20202;-67
2022/03/30 04:25:08;;;;;;;45.97;19.73;;;8.30;96.60;;;;;;5089736;28;20225;-65
2022/03/30 04:27:34;;;;;;;39.42;19.70;;;8.20;96.90;;;;;;5088641;28;20183;-66
2022/03/30 04:30:00;;;;;;;50.97;19.67;;;8.00;96.90;;;;;;5089218;28;20227;-67
2022/03/30 04:32:26;;;;;;;45.70;20.00;;;7.90;97.00;;;;;;5056703;28;20197;-68
2022/03/30 04:34:52;;;;;;;45.72;20.10;;;7.70;97.00;;;;;;5070457;28;20511;-67
2022/03/30 04:37:17;;;;;;;42.92;19.13;;;7.70;97.00;;;;;;5090773;28;20194;-68
2022/03/30 04:39:43;;;;;;;45.15;20.30;;;7.60;97.00;;;;;;5084027;28;20190;-66
2022/03/30 04:42:09;;;;;;;40.65;20.10;;;7.50;97.00;;;;;;5086379;28;20201;-67
2022/03/30 04:44:35;;;;;;;47.78;20.60;;;7.50;97.00;;;;;;5052131;28;20205;-68
2022/03/30 04:47:00;;;;;;;44.85;21.23;;;7.40;97.10;;;;;;5065702;28;20186;-67
2022/03/30 04:49:26;;;;;;;49.83;24.77;;;7.40;97.10;;;;;;5086026;28;20406;-68
2022/03/30 04:51:51;;;;;;;44.75;22.50;;;7.80;97.70;;;;;;5084593;28;20186;-67
2022/03/30 04:54:18;;;;;;;48.35;22.20;;;7.70;97.60;;;;;;5087388;28;20174;-67
2022/03/30 04:56:45;;;;;;;47.38;22.10;;;7.60;97.80;;;;;;5069065;28;20234;-67
2022/03/30 04:59:11;;;;;;;48.58;22.30;;;7.50;97.90;;;;;;5071935;28;20273;-68
2022/03/30 05:01:37;;;;;;;52.83;23.27;;;7.50;97.90;;;;;;5069163;28;20186;-69
2022/03/30 05:04:08;;;;;;;53.20;23.35;;;7.40;97.90;;;;;;5084065;28;20194;-67
2022/03/30 05:06:33;;;;;;;53.65;23.10;;;7.40;98.00;;;;;;5070595;28;20189;-67
2022/03/30 05:08:59;;;;;;;49.80;21.83;;;7.40;98.00;;;;;;5071611;28;20178;-67
2022/03/30 05:11:25;;;;;;;48.05;21.92;;;7.50;98.10;;;;;;5088474;28;20182;-69
2022/03/30 05:13:50;;;;;;;52.83;23.27;;;7.50;98.10;;;;;;5082467;28;20293;-67
2022/03/30 05:16:16;;;;;;;53.10;22.95;;;7.50;98.10;;;;;;5055719;28;20265;-71
2022/03/30 05:18:41;;;;;;;53.88;24.77;;;7.50;98.10;;;;;;5089434;28;20208;-70
2022/03/30 05:21:07;;;;;;;53.75;23.70;;;7.50;98.10;;;;;;5088397;28;20332;-70
2022/03/30 05:23:36;;;;;;;49.40;23.48;;;7.50;98.20;;;;;;5086577;28;20326;-68
2022/03/30 05:26:03;;;;;;;44.00;21.65;;;7.50;98.20;;;;;;5084603;28;20186;-67
2022/03/30 05:28:29;;;;;;;44.90;22.85;;;7.60;98.20;;;;;;5069268;28;20216;-67
2022/03/30 05:30:54;;;;;;;46.78;22.10;;;7.60;98.10;;;;;;5083798;28;20230;-67
2022/03/30 05:33:20;;;;;;;47.42;21.02;;;7.60;98.20;;;;;;5085974;28;20192;-71
2022/03/30 05:35:48;;;;;;;46.60;22.27;;;7.50;98.10;;;;;;5086260;28;20177;-67
2022/03/30 05:38:14;;;;;;;47.25;21.67;;;7.60;98.20;;;;;;5063288;28;20190;-68
2022/03/30 05:40:41;;;;;;;47.67;22.30;;;7.60;98.30;;;;;;5085007;28;20213;-72
2022/03/30 05:43:06;;;;;;;44.53;20.98;;;7.50;98.30;;;;;;5052594;28;20201;-69
2022/03/30 05:45:32;;;;;;;51.72;22.27;;;7.50;98.40;;;;;;5067148;28;20562;-70
2022/03/30 05:47:58;;;;;;;46.95;22.88;;;7.50;98.40;;;;;;5086556;28;20197;-68
2022/03/30 05:50:23;;;;;;;42.60;21.70;;;7.50;98.50;;;;;;5068177;28;20475;-71
2022/03/30 05:52:49;;;;;;;43.92;21.95;;;7.60;98.60;;;;;;5084099;28;20186;-71
2022/03/30 05:55:15;;;;;;;42.33;21.48;;;7.50;98.60;;;;;;5082736;28;20222;-71
2022/03/30 05:57:40;;;;;;;41.28;20.95;;;7.60;98.70;;;;;;5070297;28;20186;-72
2022/03/30 06:00:08;;;;;;;37.47;19.02;;;7.60;98.70;;;;;;5066706;28;20194;-69
2022/03/30 06:02:39;;;;;;;38.20;18.83;;;7.60;98.70;;;;;;5083190;28;20701;-70
2022/03/30 06:05:06;;;;;;;41.25;17.98;;;7.60;98.80;;;;;;5085023;28;20197;-70
2022/03/30 06:07:31;;;;;;;36.72;16.17;;;7.60;98.80;;;;;;5083738;28;20669;-71
2022/03/30 06:09:57;;;;;;;33.25;15.95;;;7.60;98.80;;;;;;5060850;28;20442;-69
2022/03/30 06:12:25;;;;;;;30.80;14.50;;;7.70;99.00;;;;;;5064356;28;20197;-72
2022/03/30 06:14:51;;;;;;;31.23;12.55;;;7.70;99.00;;;;;;5065936;28;20557;-71
2022/03/30 06:17:19;;;;;;;18.25;8.85;;;7.70;99.10;;;;;;5067793;28;20191;-69
2022/03/30 06:19:50;;;;;;;14.05;7.97;;;7.70;99.10;;;;;;5086242;28;20186;-69
2022/03/30 06:22:16;;;;;;;13.82;7.07;;;7.80;99.20;;;;;;5086426;28;20752;-71
2022/03/30 06:24:42;;;;;;;17.02;6.00;;;7.90;99.20;;;;;;5016943;28;1062142;-68
2022/03/30 06:27:09;;;;;;;9.50;5.53;;;7.90;99.20;;;;;;5086824;28;20186;-72
2022/03/30 06:29:35;;;;;;;10.52;5.25;;;7.90;99.20;;;;;;5087343;28;20186;-71
2022/03/30 06:32:02;;;;;;;4.90;3.80;;;7.90;99.20;;;;;;5082608;28;20228;-70
2022/03/30 06:34:28;;;;;;;12.88;5.22;;;7.90;99.30;;;;;;5085810;28;20189;-71
2022/03/30 06:36:53;;;;;;;8.82;4.25;;;8.00;99.30;;;;;;5069347;28;22148;-71
2022/03/30 06:39:19;;;;;;;6.70;3.88;;;8.00;99.30;;;;;;5086231;28;20229;-70
2022/03/30 06:41:45;;;;;;;6.28;3.75;;;8.10;99.40;;;;;;5082405;28;20232;-72
2022/03/30 06:44:11;;;;;;;8.57;3.83;;;8.10;99.40;;;;;;5086388;28;20185;-70
2022/03/30 06:46:38;;;;;;;7.72;3.90;;;8.20;99.50;;;;;;5085947;28;20174;-69
2022/03/30 06:49:10;;;;;;;7.78;3.47;;;8.20;99.50;;;;;;5087452;28;20670;-70
2022/03/30 06:51:36;;;;;;;9.13;3.67;;;8.30;99.50;;;;;;5083915;28;20190;-68
2022/03/30 06:54:02;;;;;;;7.80;3.40;;;8.30;99.60;;;;;;5087852;28;20188;-70
2022/03/30 06:56:28;;;;;;;9.05;3.67;;;8.40;99.70;;;;;;5069295;28;20186;-70
2022/03/30 06:58:54;;;;;;;9.82;3.08;;;8.40;99.70;;;;;;5069233;28;20443;-69
2022/03/30 07:01:20;;;;;;;7.07;3.55;;;8.50;99.70;;;;;;5084726;28;20196;-71
2022/03/30 07:03:46;;;;;;;6.20;3.60;;;8.50;99.70;;;;;;5081351;28;20209;-68
2022/03/30 07:06:12;;;;;;;6.43;3.50;;;8.60;99.70;;;;;;5086047;28;20255;-70
2022/03/30 07:11:22;;;;;;;7.22;3.20;;;8.70;99.80;;;;;;5068077;28;20563;-71
2022/03/30 07:13:48;;;;;;;10.50;4.30;;;8.80;99.80;;;;;;5086560;28;20193;-71
2022/03/30 07:16:14;;;;;;;6.95;4.20;;;8.80;99.80;;;;;;5068765;28;20247;-72
2022/03/30 07:18:40;;;;;;;4.68;3.40;;;8.90;99.70;;;;;;5070520;28;20606;-72
2022/03/30 07:21:06;;;;;;;6.50;3.05;;;8.90;99.70;;;;;;5070739;28;20185;-72
2022/03/30 07:23:31;;;;;;;7.15;3.30;;;9.00;99.70;;;;;;5087393;28;20221;-72
2022/03/30 07:26:00;;;;;;;3.83;2.72;;;9.00;99.60;;;;;;5071231;28;20560;-71
2022/03/30 07:28:30;;;;;;;6.50;2.85;;;9.10;99.50;;;;;;5088355;28;20213;-72
2022/03/30 07:30:56;;;;;;;4.38;2.72;;;9.10;99.40;;;;;;5083976;28;20761;-71
2022/03/30 07:33:23;;;;;;;5.55;3.00;;;9.10;99.30;;;;;;5089286;28;20190;-71
2022/03/30 07:35:49;;;;;;;3.60;2.50;;;9.20;99.20;;;;;;5087935;28;20185;-71
2022/03/30 07:38:18;;;;;;;5.32;3.00;;;9.30;99.10;;;;;;5071037;28;20221;-71
2022/03/30 07:40:45;;;;;;;5.85;3.42;;;9.30;99.00;;;;;;5088044;28;20188;-69
2022/03/30 07:43:12;;;;;;;8.32;3.47;;;9.40;98.90;;;;;;5088665;28;20228;-70
2022/03/30 07:45:38;;;;;;;7.53;3.13;;;9.50;98.80;;;;;;5085164;28;20638;-72
2022/03/30 07:48:05;;;;;;;5.15;3.42;;;9.50;99.00;;;;;;5087552;28;20409;-71
2022/03/30 07:50:31;;;;;;;6.38;3.45;;;10.10;96.80;;;;;;5088630;28;20394;-69
2022/03/30 07:52:57;;;;;;;5.70;2.65;;;10.70;95.40;;;;;;5087203;28;20405;-71
2022/03/30 07:55:24;;;;;;;3.63;2.42;;;11.00;93.80;;;;;;5067979;28;20420;-71
2022/03/30 07:57:50;;;;;;;4.70;2.20;;;11.20;92.50;;;;;;5068574;28;20401;-71
2022/03/30 08:00:17;;;;;;;4.70;2.17;;;11.40;91.70;;;;;;5088618;28;20186;-71
2022/03/30 08:02:44;;;;;;;7.80;1.95;;;11.10;92.50;;;;;;5070778;28;20235;-70
2022/03/30 08:05:12;;;;;;;3.55;1.90;;;10.90;93.10;;;;;;5088766;28;20651;-71
2022/03/30 08:07:39;;;;;;;4.05;2.08;;;10.80;93.30;;;;;;5068136;28;20195;-68
2022/03/30 08:10:06;;;;;;;4.30;1.98;;;10.70;93.30;;;;;;5086029;28;20174;-69
2022/03/30 08:12:31;;;;;;;6.13;2.22;;;10.60;93.40;;;;;;5084967;28;20198;-69
2022/03/30 08:14:57;;;;;;;2.95;1.50;;;10.60;93.40;;;;;;5082175;28;20182;-69
2022/03/30 08:17:24;;;;;;;3.72;1.52;;;10.60;93.40;;;;;;5064807;28;20201;-69
2022/03/30 08:19:50;;;;;;;4.72;1.90;;;10.60;93.30;;;;;;5079280;28;20190;-69
2022/03/30 08:22:28;;;;;;;3.85;1.98;;;10.70;93.20;;;;;;5076652;28;20673;-70
2022/03/30 08:24:53;;;;;;;3.50;1.67;;;10.70;93.00;;;;;;5066550;28;20228;-69
2022/03/30 08:27:24;;;;;;;2.58;1.75;;;10.70;92.80;;;;;;5047850;28;20194;-69
2022/03/30 08:29:52;;;;;;;4.97;2.13;;;10.80;92.70;;;;;;5080780;28;20175;-69
2022/03/30 08:32:19;;;;;;;4.55;2.00;;;10.90;92.60;;;;;;5058640;28;20197;-70
2022/03/30 08:34:45;;;;;;;3.50;2.60;;;11.00;92.50;;;;;;5084939;28;20305;-69
2022/03/30 08:37:12;;;;;;;5.18;2.42;;;11.10;92.40;;;;;;5047590;28;20226;-70
2022/03/30 08:39:37;;;;;;;4.35;2.40;;;11.20;92.20;;;;;;5080880;28;20194;-70
2022/03/30 08:42:04;;;;;;;;;;;11.30;92.20;;;;;;5059352;28;20032;-70
2022/03/30 08:44:30;;;;;;;;;;;11.40;92.20;;;;;;5066553;28;20254;-69
2022/03/30 08:46:56;;;;;;;;;;;11.40;92.30;;;;;;5067678;28;20098;-69
2022/03/30 08:49:21;;;;;;;;;;;11.50;92.30;;;;;;5060253;28;19920;-69
2022/03/30 08:51:49;;;;;;;;;;;11.60;92.20;;;;;;5069942;28;19911;-70
2022/03/30 08:54:16;;;;;;;;;;;11.60;92.10;;;;;;5066920;28;19916;-70
2022/03/30 08:56:42;;;;;;;;;;;11.70;92.30;;;;;;5081737;28;19958;-68
2022/03/30 08:59:08;;;;;;;;;;;11.90;92.70;;;;;;5078464;28;19989;-70
2022/03/30 09:01:35;;;;;;;;;;;12.20;92.80;;;;;;5060898;28;19912;-69
2022/03/30 09:04:02;;;;;;;;;;;12.50;92.70;;;;;;5083807;28;20277;-70
2022/03/30 09:06:35;;;;;;;;;;;12.80;92.40;;;;;;5085639;28;19986;-70
2022/03/30 09:09:01;;;;;;;;;;;13.20;92.60;;;;;;5079887;28;19908;-71
2022/03/30 09:11:27;;;;;;;;;;;13.60;92.20;;;;;;5071699;28;20302;-70
2022/03/30 09:14:02;;;;;;;;;;;13.90;92.10;;;;;;5071146;28;20411;-70
2022/03/30 09:16:39;;;;;;;4.47;2.25;;;15.60;75.70;;;;;;5085154;28;20384;-71
2022/03/30 09:19:09;;;;;;;4.15;2.50;;;15.50;77.60;;;;;;5079264;28;20205;-70
2022/03/30 09:21:50;;;;;;;4.53;2.50;;;15.40;78.20;;;;;;5083553;28;20194;-71
2022/03/30 09:24:18;;;;;;;5.00;2.40;;;15.30;78.20;;;;;;5085627;28;20273;-71
2022/03/30 09:26:44;;;;;;;3.10;2.40;;;15.40;78.20;;;;;;5055182;28;20220;-71
2022/03/30 09:29:10;;;;;;;;;;;15.50;77.50;;;;;;5069710;28;20380;-71
2022/03/30 09:31:39;;;;;;;6.07;3.15;;;15.50;78.10;;;;;;5084970;28;20176;-70
2022/03/30 09:34:06;;;;;;;5.55;2.50;;;15.80;78.00;;;;;;5050318;28;20193;-71
2022/03/30 09:36:38;;;;;;;3.53;2.40;;;16.10;76.40;;;;;;5084567;28;20459;-71
2022/03/30 09:39:05;;;;;;;3.53;2.10;;;17.70;59.90;;;;;;5080973;28;20187;-70
2022/03/30 09:41:52;;;;;;;2.92;2.30;;;17.30;62.80;;;;;;5069371;28;20193;-70
2022/03/30 09:44:19;;;;;;;5.22;2.58;;;16.90;65.00;;;;;;5052960;28;20240;-70
2022/03/30 09:46:54;;;;;;;3.38;2.08;;;16.70;66.10;;;;;;5083685;28;20186;-71
2022/03/30 09:49:41;;;;;;;3.20;2.22;;;16.70;66.40;;;;;;5081086;28;20185;-70
2022/03/30 09:52:16;;;;;;;4.28;1.95;;;16.80;66.40;;;;;;5086404;28;20187;-70
2022/03/30 09:54:57;;;;;;;7.10;2.20;;;16.90;65.90;;;;;;5069171;28;20201;-71
2022/03/30 09:57:25;;;;;;;4.38;1.88;;;16.90;65.10;;;;;;5062170;28;20241;-71
2022/03/30 10:00:12;;;;;;;4.28;1.55;;;16.90;64.70;;;;;;5086205;28;20197;-71
2022/03/30 10:02:41;;;;;;;4.07;1.50;;;17.20;64.20;;;;;;5086446;28;20231;-70
2022/03/30 10:05:09;;;;;;;2.95;1.48;;;17.40;63.70;;;;;;5082375;28;21091;-71
2022/03/30 10:07:35;;;;;;;4.28;1.70;;;17.70;62.70;;;;;;5082405;28;20193;-70
2022/03/30 10:10:02;;;;;;;4.53;1.92;;;17.90;62.50;;;;;;5083394;28;20265;-70
2022/03/30 10:12:28;;;;;;;3.47;1.60;;;18.10;60.90;;;;;;5082537;28;20270;-71
2022/03/30 10:14:55;;;;;;;2.38;1.30;;;18.20;59.40;;;;;;5081216;28;20587;-70
2022/03/30 10:17:22;;;;;;;8.00;1.75;;;18.00;59.00;;;;;;5082574;28;20186;-71
2022/03/30 10:19:49;;;;;;;3.03;1.70;;;17.70;58.50;;;;;;5051959;28;20275;-71
2022/03/30 10:22:34;;;;;;;2.15;1.75;;;17.40;58.50;;;;;;5065587;28;20620;-70
2022/03/30 10:25:09;;;;;;;4.10;1.60;;;17.20;58.60;;;;;;5084679;28;20613;-70
2022/03/30 10:27:54;;;;;;;5.00;2.17;;;17.20;59.10;;;;;;5063317;28;20186;-70
2022/03/30 10:30:31;;;;;;;3.53;2.00;;;17.30;58.90;;;;;;5079113;28;20186;-71
2022/03/30 10:32:59;;;;;;;5.95;1.88;;;17.60;58.10;;;;;;5084105;28;20193;-70
2022/03/30 10:35:47;;;;;;;3.58;1.70;;;17.90;57.80;;;;;;5069443;28;20209;-70
2022/03/30 10:38:14;;;;;;;8.02;2.08;;;18.20;56.70;;;;;;5083089;28;20335;-71
2022/03/30 10:40:41;;;;;;;3.78;1.80;;;18.50;56.40;;;;;;5080356;28;20665;-70
2022/03/30 10:43:11;;;;;;;3.35;1.58;;;18.80;55.60;;;;;;5085572;28;20213;-70
2022/03/30 10:45:43;;;;;;;3.20;1.65;;;19.00;54.50;;;;;;5069351;28;20182;-70
2022/03/30 10:48:21;;;;;;;3.25;1.20;;;19.00;53.40;;;;;;5081641;28;20540;-70
2022/03/30 10:50:51;;;;;;;3.75;1.73;;;19.00;53.20;;;;;;5052306;28;20223;-70
2022/03/30 10:53:32;;;;;;;4.18;1.20;;;18.90;52.50;;;;;;5084456;28;20202;-70
2022/03/30 10:56:07;;;;;;;4.65;1.50;;;18.80;50.90;;;;;;5082646;28;20230;-70
2022/03/30 10:58:36;;;;;;;5.47;1.40;;;18.70;51.30;;;;;;5078811;28;20189;-71
2022/03/30 11:01:18;;;;;;;6.97;1.40;;;18.80;51.30;;;;;;5085031;28;20318;-70
2022/03/30 11:04:17;;;;;;;3.92;1.75;;;18.90;51.10;;;;;;5078125;28;20217;-71
2022/03/30 11:07:07;;;;;;;5.13;1.52;;;19.00;50.80;;;;;;5067695;28;20556;-68
2022/03/30 11:09:35;;;;;;;2.60;1.40;;;19.10;50.90;;;;;;5076860;28;20211;-70
2022/03/30 11:12:13;;;;;;;6.20;1.50;;;19.10;50.50;;;;;;5066693;28;20200;-69
2022/03/30 11:14:58;;;;;;;4.72;1.20;;;19.10;50.10;;;;;;5046963;28;20219;-68
2022/03/30 11:17:32;;;;;;;4.65;1.48;;;19.10;49.90;;;;;;5062740;28;20206;-69
2022/03/30 11:19:58;;;;;;;4.72;1.45;;;19.10;50.10;;;;;;5067472;28;20227;-69
2022/03/30 11:22:36;;;;;;;3.67;1.60;;;19.10;50.00;;;;;;5085386;28;20679;-69
2022/03/30 11:25:05;;;;;;;2.85;1.60;;;19.00;49.50;;;;;;5084890;28;20217;-70
2022/03/30 11:27:31;;;;;;;2.85;1.10;;;18.90;49.70;;;;;;5084144;28;20191;-70
2022/03/30 11:29:59;;;;;;;2.58;1.20;;;18.90;50.00;;;;;;5046528;28;20185;-71
2022/03/30 11:32:34;;;;;;;3.45;1.40;;;18.80;49.20;;;;;;5084590;28;20311;-70
2022/03/30 11:35:11;;;;;;;2.72;1.20;;;18.80;48.60;;;;;;5069485;28;20189;-70
2022/03/30 11:37:44;;;;;;;4.32;1.30;;;18.80;48.30;;;;;;5069139;28;20193;-70
2022/03/30 11:40:12;;;;;;;5.75;1.60;;;18.80;48.10;;;;;;5086709;28;20238;-70
2022/03/30 11:42:42;;;;;;;3.33;1.33;;;18.90;48.20;;;;;;5087272;28;20395;-70
2022/03/30 11:45:13;;;;;;;3.90;1.25;;;19.00;47.70;;;;;;5086493;28;20178;-67
2022/03/30 11:47:41;;;;;;;3.58;1.30;;;19.00;47.40;;;;;;5089056;28;20185;-69
2022/03/30 11:50:12;;;;;;;3.35;1.27;;;19.10;47.50;;;;;;5085013;28;20209;-69
2022/03/30 11:52:39;;;;;;;9.90;1.50;;;19.10;47.30;;;;;;5070201;28;20265;-69
2022/03/30 11:55:07;;;;;;;3.22;1.08;;;19.10;47.30;;;;;;5086216;28;20181;-69
2022/03/30 11:57:38;;;;;;;4.82;0.93;;;19.10;47.90;;;;;;5088320;28;20197;-73
2022/03/30 12:00:09;;;;;;;3.13;1.10;;;19.10;47.70;;;;;;5065814;28;20672;-74
2022/03/30 12:02:43;;;;;;;4.28;1.45;;;19.10;47.60;;;;;;5055267;28;20746;-73
2022/03/30 12:05:09;;;;;;;4.57;1.20;;;19.00;47.60;;;;;;5064532;28;20256;-73
2022/03/30 12:07:37;;;;;;;5.13;1.48;;;19.10;47.50;;;;;;5084766;28;20185;-73
2022/03/30 12:10:06;;;;;;;4.20;1.50;;;19.00;47.80;;;;;;5067532;28;20642;-74
2022/03/30 12:12:37;;;;;;;5.70;1.70;;;19.00;48.20;;;;;;5069790;28;20177;-74
2022/03/30 12:15:11;;;;;;;3.45;1.50;;;19.10;48.20;;;;;;5086446;28;20323;-68
2022/03/30 12:17:37;;;;;;;5.50;1.98;;;19.10;47.50;;;;;;5085428;28;20316;-70
2022/03/30 12:20:06;;;;;;;6.57;1.60;;;19.00;47.10;;;;;;5085575;28;20690;-70
2022/03/30 12:22:34;;;;;;;7.10;1.55;;;19.00;47.00;;;;;;5070231;28;20228;-71
2022/03/30 12:24:59;;;;;;;5.97;1.67;;;19.00;46.70;;;;;;5085400;28;20255;-71
2022/03/30 12:27:26;;;;;;;6.45;1.30;;;19.00;46.80;;;;;;5086871;28;20593;-72
2022/03/30 12:29:55;;;;;;;3.92;1.42;;;19.00;46.50;;;;;;5068491;28;20205;-73
2022/03/30 12:32:23;;;;;;;2.35;1.30;;;18.90;46.30;;;;;;5081037;28;20193;-72
2022/03/30 12:34:50;;;;;;;5.05;1.45;;;19.00;46.20;;;;;;5059336;28;20189;-73
2022/03/30 12:37:22;;;;;;;3.33;1.30;;;19.00;45.90;;;;;;5084932;28;20221;-73
2022/03/30 12:39:48;;;;;;;7.30;1.75;;;19.20;45.90;;;;;;5087349;28;20194;-72
2022/03/30 12:42:17;;;;;;;4.15;1.45;;;19.20;46.10;;;;;;5090676;28;20593;-72
2022/03/30 12:44:52;;;;;;;7.00;1.52;;;19.30;46.10;;;;;;5072650;28;20239;-72
2022/03/30 12:47:24;;;;;;;3.35;1.42;;;19.30;46.20;;;;;;5052651;28;20177;-73
2022/03/30 12:49:52;;;;;;;5.05;1.70;;;19.40;46.20;;;;;;5091522;28;20181;-69
2022/03/30 12:52:18;;;;;;;4.13;1.40;;;19.30;46.00;;;;;;5070229;28;20225;-70
2022/03/30 12:54:45;;;;;;;8.05;1.60;;;19.40;46.20;;;;;;5091763;28;20665;-70
2022/03/30 12:57:13;;;;;;;10.02;1.40;;;19.30;46.10;;;;;;5090688;28;20193;-71
2022/03/30 12:59:40;;;;;;;6.45;1.38;;;19.40;46.30;;;;;;5085625;28;20193;-72